createdAt,value
2022-08-27T00:01:23.367Z,22.02
2022-08-27T00:03:51.562Z,21.98
2022-08-27T00:06:19.991Z,21.91
2022-08-27T00:08:48.435Z,21.89
2022-08-27T00:11:16.136Z,21.86
2022-08-27T00:13:43.557Z,21.89
2022-08-27T00:16:12.809Z,21.91
2022-08-27T00:18:40.827Z,21.96
2022-08-27T00:21:08.746Z,21.98
2022-08-27T00:23:37.329Z,21.93
2022-08-27T00:26:06.583Z,21.89
2022-08-27T00:28:34.856Z,21.86
2022-08-27T00:31:02.236Z,21.79
2022-08-27T00:33:30.814Z,21.76
2022-08-27T00:35:58.236Z,21.77
2022-08-27T00:38:25.493Z,21.81
2022-08-27T00:40:53.658Z,21.76
2022-08-27T00:43:26.761Z,21.83
2022-08-27T00:45:59.251Z,21.82
2022-08-27T00:48:30.793Z,21.73
2022-08-27T00:50:58.201Z,21.70
2022-08-27T00:53:29.862Z,21.69
2022-08-27T00:56:21.160Z,21.61
2022-08-27T00:58:52.077Z,21.52
2022-08-27T01:01:25.726Z,21.52
2022-08-27T01:03:56.587Z,21.42
2022-08-27T01:06:28.754Z,21.31
2022-08-27T01:09:02.861Z,21.30
2022-08-27T01:11:30.142Z,21.33
2022-08-27T01:14:00.508Z,21.28
2022-08-27T01:16:36.053Z,21.33
2022-08-27T01:19:11.112Z,21.28
2022-08-27T01:22:05.820Z,21.28
2022-08-27T01:24:45.779Z,21.22
2022-08-27T01:27:19.710Z,21.28
2022-08-27T01:29:47.086Z,21.25
2022-08-27T01:32:20.436Z,21.26
2022-08-27T01:34:48.119Z,21.29
2022-08-27T01:37:23.739Z,21.30
2022-08-27T01:39:52.710Z,21.20
2022-08-27T01:42:24.334Z,21.22
2022-08-27T01:44:55.730Z,21.20
2022-08-27T01:47:30.609Z,21.17
2022-08-27T01:49:59.723Z,21.12
2022-08-27T01:52:29.527Z,21.04
2022-08-27T01:54:57.177Z,21.06
2022-08-27T01:57:26.258Z,20.97
2022-08-27T01:59:58.309Z,21.01
2022-08-27T02:02:27.140Z,20.93
2022-08-27T02:04:54.344Z,20.90
2022-08-27T02:07:21.697Z,20.91
2022-08-27T02:09:48.762Z,20.90
2022-08-27T02:12:15.870Z,20.88
2022-08-27T02:14:43.270Z,20.84
2022-08-27T02:17:10.953Z,20.86
2022-08-27T02:19:38.609Z,20.86
2022-08-27T02:22:05.783Z,20.86
2022-08-27T02:24:32.894Z,20.81
2022-08-27T02:27:00.086Z,20.76
2022-08-27T02:29:27.944Z,20.64
2022-08-27T02:31:55.239Z,20.64
2022-08-27T02:34:23.548Z,20.68
2022-08-27T02:36:50.743Z,20.65
2022-08-27T02:39:17.788Z,20.54
2022-08-27T02:41:44.963Z,20.58
2022-08-27T02:44:12.327Z,20.60
2022-08-27T02:46:41.967Z,20.63
2022-08-27T02:49:09.802Z,20.56
2022-08-27T02:51:37.862Z,20.66
2022-08-27T02:54:06.332Z,20.60
2022-08-27T02:56:37.869Z,20.57
2022-08-27T02:59:05.394Z,20.49
2022-08-27T03:01:32.623Z,20.42
2022-08-27T03:03:59.837Z,20.46
2022-08-27T03:06:28.739Z,20.46
2022-08-27T03:08:55.832Z,20.48
2022-08-27T03:11:23.758Z,20.46
2022-08-27T03:13:51.486Z,20.40
2022-08-27T03:16:19.132Z,20.44
2022-08-27T03:18:46.234Z,20.42
2022-08-27T03:21:19.685Z,20.36
2022-08-27T03:23:46.942Z,20.34
2022-08-27T03:26:14.000Z,20.31
2022-08-27T03:28:41.535Z,20.28
2022-08-27T03:31:14.895Z,20.25
2022-08-27T03:33:43.748Z,20.20
2022-08-27T03:36:10.845Z,20.22
2022-08-27T03:38:38.545Z,20.21
2022-08-27T03:41:06.496Z,20.22
2022-08-27T03:43:33.789Z,20.17
2022-08-27T03:46:02.504Z,20.12
2022-08-27T03:48:33.246Z,20.15
2022-08-27T03:51:08.538Z,20.16
2022-08-27T03:53:38.063Z,20.17
2022-08-27T03:56:06.595Z,20.17
2022-08-27T03:58:35.092Z,20.16
2022-08-27T04:01:02.571Z,20.15
2022-08-27T04:03:29.852Z,20.07
2022-08-27T04:05:58.617Z,19.95
2022-08-27T04:08:26.837Z,19.94
2022-08-27T04:10:55.203Z,19.99
2022-08-27T04:13:23.710Z,20.02
2022-08-27T04:15:52.750Z,20.04
2022-08-27T04:18:19.859Z,20.02
2022-08-27T04:20:49.108Z,19.96
2022-08-27T04:23:17.223Z,19.95
2022-08-27T04:25:45.363Z,19.89
2022-08-27T04:28:14.967Z,19.87
2022-08-27T04:30:47.248Z,19.84
2022-08-27T04:33:14.882Z,19.89
2022-08-27T04:35:42.923Z,19.82
2022-08-27T04:38:10.223Z,19.87
2022-08-27T04:40:56.887Z,19.88
2022-08-27T04:43:24.132Z,19.94
2022-08-27T04:45:51.115Z,20.00
2022-08-27T04:48:19.899Z,20.01
2022-08-27T04:50:47.956Z,20.03
2022-08-27T04:53:17.374Z,20.07
2022-08-27T04:55:47.000Z,20.04
2022-08-27T04:58:15.327Z,20.04
2022-08-27T05:00:50.906Z,20.03
2022-08-27T05:03:20.159Z,20.09
2022-08-27T05:05:50.049Z,20.12
2022-08-27T05:08:18.111Z,20.20
2022-08-27T05:10:47.895Z,20.23
2022-08-27T05:13:16.419Z,20.25
2022-08-27T05:15:43.483Z,20.32
2022-08-27T05:18:10.854Z,20.38
2022-08-27T05:20:47.078Z,20.46
2022-08-27T05:23:17.392Z,20.50
2022-08-27T05:25:47.519Z,20.58
2022-08-27T05:28:16.931Z,20.67
2022-08-27T05:30:52.356Z,20.67
2022-08-27T05:33:25.753Z,20.72
2022-08-27T05:35:57.636Z,20.75
2022-08-27T05:38:27.294Z,20.83
2022-08-27T05:41:06.871Z,20.84
2022-08-27T05:43:34.319Z,20.89
2022-08-27T05:46:07.907Z,20.95
2022-08-27T05:48:36.670Z,20.98
2022-08-27T05:51:09.940Z,21.00
2022-08-27T05:53:38.083Z,21.08
2022-08-27T05:56:05.918Z,21.17
2022-08-27T05:58:51.803Z,21.22
2022-08-27T06:01:22.349Z,21.31
2022-08-27T06:03:49.651Z,21.36
2022-08-27T06:06:16.859Z,21.46
2022-08-27T06:08:44.126Z,21.48
2022-08-27T06:11:11.959Z,21.56
2022-08-27T06:13:39.300Z,21.68
2022-08-27T06:16:16.577Z,21.78
2022-08-27T06:18:46.748Z,21.83
2022-08-27T06:21:14.972Z,22.05
2022-08-27T06:23:42.078Z,22.14
2022-08-27T06:26:16.078Z,22.22
2022-08-27T06:28:44.638Z,22.27
2022-08-27T06:31:20.403Z,22.41
2022-08-27T06:33:47.979Z,22.50
2022-08-27T06:36:17.805Z,22.60
2022-08-27T06:38:45.246Z,22.71
2022-08-27T06:41:23.771Z,22.88
2022-08-27T06:43:52.322Z,22.95
2022-08-27T06:46:22.454Z,23.05
2022-08-27T06:48:53.918Z,23.14
2022-08-27T06:51:26.920Z,23.18
2022-08-27T06:53:55.985Z,23.31
2022-08-27T06:56:23.195Z,23.41
2022-08-27T06:58:55.645Z,23.48
2022-08-27T07:01:35.130Z,23.63
2022-08-27T07:04:05.620Z,23.81
2022-08-27T07:06:34.343Z,23.87
2022-08-27T07:09:01.491Z,23.92
2022-08-27T07:11:32.290Z,23.97
2022-08-27T07:14:00.036Z,24.05
2022-08-27T07:16:28.726Z,24.16
2022-08-27T07:19:00.976Z,24.20
2022-08-27T07:21:31.650Z,24.29
2022-08-27T07:24:00.144Z,24.40
2022-08-27T07:26:28.669Z,24.49
2022-08-27T07:28:55.688Z,24.56
2022-08-27T07:31:23.973Z,24.68
2022-08-27T07:33:53.128Z,24.80
2022-08-27T07:36:24.794Z,24.91
2022-08-27T07:39:00.816Z,25.00
2022-08-27T07:41:31.816Z,25.20
2022-08-27T07:44:26.176Z,25.17
2022-08-27T07:46:56.110Z,25.13
2022-08-27T07:49:23.992Z,25.24
2022-08-27T07:51:51.595Z,25.35
2022-08-27T07:54:21.511Z,25.45
2022-08-27T07:56:55.502Z,25.51
2022-08-27T07:59:25.160Z,25.75
2022-08-27T08:01:54.304Z,25.68
2022-08-27T08:04:22.974Z,25.69
2022-08-27T08:06:51.178Z,25.86
2022-08-27T08:09:18.730Z,25.97
2022-08-27T08:11:46.367Z,26.03
2022-08-27T08:14:13.491Z,26.11
2022-08-27T08:16:40.606Z,26.19
2022-08-27T08:19:09.471Z,26.47
2022-08-27T08:21:37.073Z,26.43
2022-08-27T08:24:04.516Z,26.43
2022-08-27T08:26:31.702Z,26.51
2022-08-27T08:29:00.753Z,26.55
2022-08-27T08:31:27.871Z,26.63
2022-08-27T08:33:55.062Z,26.71
2022-08-27T08:36:22.197Z,26.76
2022-08-27T08:38:50.799Z,26.94
2022-08-27T08:41:44.267Z,26.97
2022-08-27T08:44:31.379Z,27.10
2022-08-27T08:47:15.923Z,27.28
2022-08-27T08:50:04.583Z,27.39
2022-08-27T08:52:34.804Z,27.46
2022-08-27T08:55:14.429Z,27.53
2022-08-27T08:57:50.570Z,27.59
2022-08-27T09:00:17.993Z,27.68
2022-08-27T09:02:55.542Z,27.67
2022-08-27T09:05:27.135Z,27.75
2022-08-27T09:08:30.921Z,27.89
2022-08-27T09:10:59.871Z,27.95
2022-08-27T09:13:32.994Z,28.06
2022-08-27T09:16:03.990Z,28.08
2022-08-27T09:18:35.402Z,28.09
2022-08-27T09:21:17.394Z,28.20
2022-08-27T09:24:36.286Z,28.37
2022-08-27T09:27:04.211Z,28.56
2022-08-27T09:29:31.297Z,28.65
2022-08-27T09:32:01.613Z,28.76
2022-08-27T09:34:36.399Z,29.03
2022-08-27T09:37:10.146Z,29.00
2022-08-27T09:39:56.554Z,28.98
2022-08-27T09:42:26.312Z,28.99
2022-08-27T09:44:54.895Z,28.99
2022-08-27T09:47:22.650Z,29.08
2022-08-27T09:50:00.481Z,29.11
2022-08-27T09:52:46.169Z,29.27
2022-08-27T09:55:14.646Z,29.38
2022-08-27T09:57:42.694Z,29.50
2022-08-27T10:00:16.741Z,29.59
2022-08-27T10:02:53.095Z,29.60
2022-08-27T10:05:56.905Z,29.65
2022-08-27T10:08:38.637Z,29.72
2022-08-27T10:11:17.544Z,29.81
2022-08-27T10:14:06.434Z,29.89
2022-08-27T10:16:42.332Z,30.06
2022-08-27T10:19:26.401Z,30.05
2022-08-27T10:22:12.061Z,30.11
2022-08-27T10:25:10.277Z,30.22
2022-08-27T10:28:02.435Z,30.33
2022-08-27T10:30:58.882Z,30.43
2022-08-27T10:33:31.882Z,30.57
2022-08-27T10:36:03.875Z,30.65
2022-08-27T10:38:43.790Z,30.69
2022-08-27T10:41:25.655Z,30.75
2022-08-27T10:44:10.367Z,30.78
2022-08-27T10:46:50.011Z,30.88
2022-08-27T10:49:26.672Z,30.90
2022-08-27T10:52:15.040Z,31.05
2022-08-27T10:54:50.903Z,31.34
2022-08-27T10:57:40.045Z,31.38
2022-08-27T11:00:19.968Z,31.37
2022-08-27T11:03:07.509Z,31.51
2022-08-27T11:05:40.745Z,31.61
2022-08-27T11:08:29.121Z,31.58
2022-08-27T11:11:51.742Z,31.69
2022-08-27T11:14:01.131Z,31.83
2022-08-27T11:16:45.973Z,32.03
2022-08-27T11:19:18.905Z,32.20
2022-08-27T11:22:17.168Z,32.29
2022-08-27T11:25:28.507Z,32.45
2022-08-27T11:27:58.170Z,32.52
2022-08-27T11:31:06.747Z,32.68
2022-08-27T11:33:45.470Z,32.87
2022-08-27T11:36:35.476Z,32.96
2022-08-27T11:39:19.801Z,33.06
2022-08-27T11:41:56.327Z,33.08
2022-08-27T11:44:26.816Z,33.22
2022-08-27T11:46:57.993Z,33.11
2022-08-27T11:49:36.900Z,33.44
2022-08-27T11:52:09.756Z,33.46
2022-08-27T11:54:52.248Z,33.56
2022-08-27T11:57:30.405Z,33.83
2022-08-27T11:59:57.854Z,34.11
2022-08-27T12:02:29.431Z,34.39
2022-08-27T12:05:33.565Z,34.91
2022-08-27T12:08:24.111Z,35.50
2022-08-27T12:11:15.460Z,35.67
2022-08-27T12:13:42.618Z,35.41
2022-08-27T12:16:18.590Z,35.77
2022-08-27T12:18:45.700Z,36.30
2022-08-27T12:21:29.781Z,36.74
2022-08-27T12:24:08.782Z,36.82
2022-08-27T12:26:39.495Z,37.08
2022-08-27T12:29:27.722Z,37.26
2022-08-27T12:32:17.581Z,37.86
2022-08-27T12:34:59.506Z,38.23
2022-08-27T12:37:31.049Z,38.42
2022-08-27T12:40:02.631Z,38.80
2022-08-27T12:42:29.771Z,38.97
2022-08-27T12:44:58.179Z,39.47
2022-08-27T12:47:26.172Z,39.21
2022-08-27T12:49:59.035Z,39.90
2022-08-27T12:53:03.891Z,40.67
2022-08-27T12:56:00.184Z,40.96
2022-08-27T12:58:51.969Z,41.36
2022-08-27T13:01:28.867Z,41.32
2022-08-27T13:03:56.626Z,41.37
2022-08-27T13:06:30.619Z,41.48
